Oakdale, Connecticut
Current Conditions -  °F | °C
As of 6:56 PM on Monday 20 Oct 2014 (Local Time) from KGON Reporting Station
Clear Clear  
Wind Chill: 55°   Ceiling: Unl
Heat Index: 55°   Visibility: 10mi
Dew Point: 43°   Wind: 13mph
Humidity: 64%   Direction: 240°WSW
Pressure: 30"   Gusts: NA
Location:  41.47°N, 72.16°W
Report Text: KGON 202256Z 24011KT 10SM CLR 13/06 A3000 RMK AO2 SLP157 T01280061
Loading
Personal Weather Stations






























Interactive Weather Map
Tropical Storm Tracking
New forecast layout! Learn more

10-Day Weather Forecast

Advertisements
Track Severe Weather on mobile